Time;durP1;ratioP1;P1;durP2;ratioP2;P2;SDS_P1;SDS_P2;PMS_P1;PMS_P2;Temp;Humidity;BMP_temperature;BMP_pressure;BME280_temperature;BME280_humidity;BME280_pressure;Samples;Min_cycle;Max_cycle;Signal;HPM_P1;HPM_P2
2022/08/10 00:00:22;;;;;;;3.73;2.30;;;18.10;94.70;;;;;;4993788;28;20467;-69
2022/08/10 00:02:49;;;;;;;2.50;2.30;;;18.00;94.50;;;;;;4993387;28;20977;-67
2022/08/10 00:05:17;;;;;;;3.40;1.93;;;18.00;94.70;;;;;;4993217;28;20467;-68
2022/08/10 00:07:44;;;;;;;2.20;2.00;;;18.00;94.70;;;;;;4993250;28;20990;-69
2022/08/10 00:10:13;;;;;;;2.60;2.10;;;17.90;94.60;;;;;;4993530;28;20478;-66
2022/08/10 00:12:40;;;;;;;1.70;1.60;;;17.90;95.20;;;;;;4993067;28;20497;-67
2022/08/10 00:15:09;;;;;;;2.53;1.70;;;17.80;95.10;;;;;;4993056;28;20462;-68
2022/08/10 00:17:36;;;;;;;1.97;1.87;;;17.80;95.10;;;;;;4993132;28;20483;-68
2022/08/10 00:20:04;;;;;;;2.27;2.07;;;17.80;95.20;;;;;;4993274;28;20843;-68
2022/08/10 00:22:32;;;;;;;2.03;1.93;;;17.80;95.50;;;;;;4993084;28;20459;-68
2022/08/10 00:24:59;;;;;;;2.30;1.93;;;17.70;95.50;;;;;;4992486;28;20481;-69
2022/08/10 00:27:27;;;;;;;2.97;2.40;;;17.70;95.70;;;;;;4993109;28;20493;-68
2022/08/10 00:29:54;;;;;;;2.03;1.87;;;17.70;95.50;;;;;;4992966;28;20466;-68
2022/08/10 00:32:21;;;;;;;2.10;1.90;;;17.70;95.70;;;;;;4993128;28;20610;-68
2022/08/10 00:34:48;;;;;;;2.60;1.67;;;17.70;95.70;;;;;;4992178;28;20904;-69
2022/08/10 00:37:16;;;;;;;2.33;1.73;;;17.70;95.90;;;;;;4992877;28;20487;-69
2022/08/10 00:39:44;;;;;;;2.20;2.00;;;17.60;95.70;;;;;;4992931;28;20569;-68
2022/08/10 00:42:13;;;;;;;2.40;2.13;;;17.60;95.90;;;;;;4992747;28;20655;-69
2022/08/10 00:44:41;;;;;;;2.30;2.10;;;17.50;95.80;;;;;;4992287;28;20990;-68
2022/08/10 00:47:09;;;;;;;3.10;2.57;;;17.50;96.00;;;;;;4992669;28;20483;-68
2022/08/10 00:49:36;;;;;;;2.40;2.13;;;17.50;96.20;;;;;;4992802;28;20963;-66
2022/08/10 00:52:04;;;;;;;2.43;2.23;;;17.40;96.60;;;;;;4992460;28;20489;-68
2022/08/10 00:54:32;;;;;;;2.10;1.90;;;17.40;96.60;;;;;;4992216;28;20470;-68
2022/08/10 00:57:00;;;;;;;3.10;2.50;;;17.30;96.60;;;;;;4992785;28;20491;-67
2022/08/10 00:59:26;;;;;;;1.80;1.70;;;17.30;97.00;;;;;;4992271;28;20900;-66
2022/08/10 01:01:53;;;;;;;2.17;2.00;;;17.30;96.60;;;;;;4992642;28;20537;-68
2022/08/10 01:04:20;;;;;;;2.37;2.17;;;17.30;96.70;;;;;;4991591;28;20463;-69
2022/08/10 01:06:57;;;;;;;2.20;1.90;;;17.20;96.90;;;;;;4992550;28;20491;-69
2022/08/10 01:09:31;;;;;;;2.20;2.00;;;17.30;97.10;;;;;;4991779;28;20463;-68
2022/08/10 01:12:08;;;;;;;2.37;2.17;;;17.20;97.00;;;;;;4992595;28;20903;-68
2022/08/10 01:14:41;;;;;;;1.90;1.80;;;17.20;96.90;;;;;;4991357;28;20469;-67
2022/08/10 01:17:13;;;;;;;1.60;1.50;;;17.20;96.90;;;;;;4992378;28;20494;-69
2022/08/10 01:19:56;;;;;;;2.20;2.10;;;17.10;97.00;;;;;;4991926;28;20470;-66
2022/08/10 01:23:07;;;;;;;2.60;2.40;;;17.00;97.20;;;;;;4992287;28;20825;-69
2022/08/10 01:25:50;;;;;;;3.20;2.27;;;17.00;97.50;;;;;;4921434;28;20533;-68
2022/08/10 01:28:30;;;;;;;2.10;2.00;;;17.00;97.60;;;;;;4992117;28;20501;-68
2022/08/10 01:31:02;;;;;;;4.73;2.40;;;17.00;97.90;;;;;;4992016;28;20541;-66
2022/08/10 01:33:34;;;;;;;2.10;2.00;;;16.90;97.60;;;;;;4991398;28;20489;-68
2022/08/10 01:36:08;;;;;;;1.90;1.80;;;16.90;97.60;;;;;;4992174;28;20462;-69
2022/08/10 01:38:39;;;;;;;5.37;2.37;;;16.90;97.70;;;;;;4991495;28;20466;-68
2022/08/10 01:41:08;;;;;;;2.30;2.10;;;16.90;97.60;;;;;;4992132;28;20915;-68
2022/08/10 01:43:45;;;;;;;2.10;2.00;;;16.80;97.70;;;;;;4991038;28;20517;-69
2022/08/10 01:46:15;;;;;;;2.00;1.83;;;16.80;97.90;;;;;;4991891;28;20858;-69
2022/08/10 01:48:48;;;;;;;2.30;2.10;;;16.80;98.00;;;;;;4991401;28;20954;-68
2022/08/10 01:51:21;;;;;;;2.33;2.20;;;16.70;98.10;;;;;;4991794;28;20517;-67
2022/08/10 01:53:54;;;;;;;2.80;2.10;;;16.70;98.10;;;;;;4990842;28;20548;-68
2022/08/10 01:56:24;;;;;;;2.10;2.00;;;16.70;98.20;;;;;;4991805;28;21200;-68
2022/08/10 01:58:55;;;;;;;2.40;2.20;;;16.70;98.30;;;;;;4991402;28;20470;-68
2022/08/10 02:01:26;;;;;;;2.40;2.20;;;16.70;98.30;;;;;;4991659;28;20467;-68
2022/08/10 02:03:57;;;;;;;2.83;2.20;;;16.60;98.40;;;;;;4990965;28;20459;-68
2022/08/10 02:06:26;;;;;;;2.40;2.17;;;16.60;98.50;;;;;;4991400;28;20487;-68
2022/08/10 02:09:35;;;;;;;2.70;2.50;;;16.50;98.60;;;;;;5015070;22;20927;-91
2022/08/10 02:12:06;;;;;;;2.53;2.10;;;16.50;98.80;;;;;;4974249;28;20984;-91
2022/08/10 02:14:35;;;;;;;2.50;2.30;;;16.40;99.00;;;;;;4974444;28;20491;-91
2022/08/10 02:17:07;;;;;;;2.20;2.00;;;16.50;99.10;;;;;;4974583;28;20463;-92
2022/08/10 02:19:38;;;;;;;2.40;2.20;;;16.50;98.90;;;;;;4974697;28;20475;-91
2022/08/10 02:22:08;;;;;;;2.00;1.80;;;16.40;98.90;;;;;;4973765;28;20468;-91
2022/08/10 02:24:35;;;;;;;2.40;2.20;;;16.40;99.00;;;;;;4974541;28;20460;-91
2022/08/10 02:27:04;;;;;;;2.07;1.97;;;16.40;99.10;;;;;;4974557;28;20475;-91
2022/08/10 02:29:32;;;;;;;2.27;2.07;;;16.40;99.10;;;;;;4974397;28;20488;-92
2022/08/10 02:31:59;;;;;;;2.47;2.27;;;16.30;99.20;;;;;;4974667;28;20470;-91
2022/08/10 02:34:29;;;;;;;2.27;2.10;;;16.30;99.20;;;;;;4974257;28;20984;-91
2022/08/10 02:36:58;;;;;;;2.53;2.27;;;16.30;99.20;;;;;;4974408;28;20466;-91
2022/08/10 02:39:25;;;;;;;2.50;2.30;;;16.30;99.30;;;;;;4974294;28;20475;-91
2022/08/10 02:41:58;;;;;;;3.30;2.33;;;16.20;99.40;;;;;;4974558;28;20468;-91
2022/08/10 02:44:33;;;;;;;2.37;2.20;;;16.20;99.50;;;;;;4973929;28;20479;-94
2022/08/10 02:47:05;;;;;;;2.47;2.27;;;16.20;99.70;;;;;;4974668;28;20482;-93
2022/08/10 02:49:38;;;;;;;2.33;2.13;;;16.20;99.70;;;;;;4973899;28;21009;-93
2022/08/10 02:52:11;;;;;;;2.60;2.40;;;16.10;99.80;;;;;;4973818;28;20467;-94
2022/08/10 02:54:43;;;;;;;2.90;2.53;;;16.10;99.90;;;;;;4974045;28;20475;-94
2022/08/10 02:57:16;;;;;;;2.60;2.40;;;16.10;99.90;;;;;;4974366;28;20490;-93
2022/08/10 02:59:56;;;;;;;2.80;2.60;;;16.00;99.90;;;;;;4974390;28;20494;-94
2022/08/10 03:02:37;;;;;;;7.30;2.80;;;16.00;99.90;;;;;;4976206;28;20455;-93
2022/08/10 03:05:09;;;;;;;2.20;2.00;;;15.90;99.90;;;;;;4979289;28;20555;-96
2022/08/10 03:07:41;;;;;;;2.60;2.40;;;15.90;99.90;;;;;;4975261;28;20487;-95
2022/08/10 03:12:57;;;;;;;3.07;2.73;;;15.90;99.90;;;;;;4960725;28;20511;-94
2022/08/10 03:15:26;;;;;;;2.60;2.40;;;15.90;99.90;;;;;;4975940;28;20463;-94
2022/08/10 03:17:54;;;;;;;2.40;2.30;;;15.90;99.90;;;;;;4975284;28;20468;-94
2022/08/10 03:20:25;;;;;;;2.30;2.10;;;15.90;99.90;;;;;;4975031;28;20460;-93
2022/08/10 03:22:54;;;;;;;2.40;2.20;;;15.80;99.90;;;;;;4974825;28;20470;-94
2022/08/10 03:25:23;;;;;;;2.70;2.50;;;15.80;99.90;;;;;;4974539;28;20474;-94
2022/08/10 03:27:51;;;;;;;3.77;2.73;;;15.80;99.90;;;;;;4974673;28;20472;-94
2022/08/10 03:30:18;;;;;;;2.60;2.40;;;15.70;99.90;;;;;;4974463;28;20463;-93
2022/08/10 03:32:45;;;;;;;3.47;2.70;;;15.70;99.90;;;;;;4975861;28;20506;-94
2022/08/10 03:35:13;;;;;;;2.77;2.33;;;15.70;99.90;;;;;;4980461;28;20471;-93
2022/08/10 03:37:41;;;;;;;3.80;2.27;;;15.70;99.90;;;;;;4979404;28;20467;-95
2022/08/10 03:40:09;;;;;;;2.63;2.43;;;15.70;99.90;;;;;;4977972;28;20484;-95
2022/08/10 03:42:38;;;;;;;2.53;2.33;;;15.70;99.90;;;;;;4979071;28;20468;-94
2022/08/10 03:45:07;;;;;;;2.80;2.60;;;15.70;99.90;;;;;;4977994;28;20474;-94
2022/08/10 03:47:39;;;;;;;2.70;2.50;;;15.70;99.90;;;;;;4985870;28;20468;-94
2022/08/10 03:50:07;;;;;;;3.80;2.67;;;15.70;99.90;;;;;;4978933;28;20484;-94
2022/08/10 04:02:51;;;;;;;2.60;2.40;;;15.60;99.90;;;;;;4977559;28;20474;-91
2022/08/10 04:13:15;;;;;;;2.50;2.30;;;15.50;99.90;;;;;;4931775;28;20468;-94
2022/08/10 04:26:00;;;;;;;3.20;2.90;;;15.50;99.90;;;;;;4915951;28;20463;-95
2022/08/10 04:28:27;;;;;;;2.30;2.10;;;15.50;99.90;;;;;;4981169;28;20484;-94
2022/08/10 04:30:55;;;;;;;2.90;2.70;;;15.50;99.90;;;;;;4981123;28;20689;-95
2022/08/10 04:39:57;;;;;;;3.00;2.70;;;15.40;99.90;;;;;;4990154;23;20501;-69
2022/08/10 04:42:24;;;;;;;2.63;2.43;;;15.50;99.90;;;;;;4993100;28;20462;-68
2022/08/10 04:44:51;;;;;;;2.80;2.37;;;15.50;99.90;;;;;;4992224;28;20454;-70
2022/08/10 04:47:18;;;;;;;2.50;2.30;;;15.50;99.90;;;;;;4993181;28;20836;-70
2022/08/10 04:49:45;;;;;;;4.00;2.53;;;15.50;99.90;;;;;;4993556;28;20462;-70
2022/08/10 04:52:11;;;;;;;3.03;2.73;;;15.50;99.90;;;;;;4993049;28;20462;-69
2022/08/10 04:54:38;;;;;;;2.90;2.60;;;15.50;99.90;;;;;;4992917;28;20495;-70
2022/08/10 04:57:06;;;;;;;2.80;2.60;;;15.60;99.90;;;;;;4993118;28;20487;-69
2022/08/10 04:59:33;;;;;;;2.83;2.63;;;15.60;99.90;;;;;;4993327;28;20458;-69
2022/08/10 05:02:00;;;;;;;3.03;2.60;;;15.60;99.90;;;;;;4993422;28;20513;-69
2022/08/10 05:04:26;;;;;;;3.13;2.50;;;15.70;99.90;;;;;;4992431;28;20989;-69
2022/08/10 05:06:53;;;;;;;2.57;2.10;;;15.70;99.90;;;;;;4993641;28;20490;-70
2022/08/10 05:09:20;;;;;;;3.40;3.10;;;15.80;99.90;;;;;;4993232;28;20536;-70
2022/08/10 05:11:48;;;;;;;3.00;2.70;;;15.80;99.90;;;;;;4993084;28;20473;-68
2022/08/10 05:14:16;;;;;;;3.07;2.77;;;15.80;99.90;;;;;;4991435;28;20467;-68
2022/08/10 05:16:42;;;;;;;3.27;2.97;;;15.90;99.90;;;;;;4992499;28;21019;-69
2022/08/10 05:19:09;;;;;;;2.47;2.27;;;15.90;99.90;;;;;;4995033;28;20593;-68
2022/08/10 05:21:36;;;;;;;3.60;2.67;;;16.00;99.90;;;;;;5002600;28;20462;-69
2022/08/10 05:24:03;;;;;;;2.50;2.30;;;16.10;99.90;;;;;;5000243;28;20459;-69
2022/08/10 05:26:30;;;;;;;2.73;2.47;;;16.20;99.90;;;;;;5001400;28;20506;-69
2022/08/10 05:28:57;;;;;;;2.40;2.20;;;16.30;99.90;;;;;;5007988;28;20469;-68
2022/08/10 05:31:26;;;;;;;2.47;2.27;;;16.40;99.90;;;;;;5011568;28;20462;-68
2022/08/10 05:33:53;;;;;;;3.87;2.70;;;16.50;99.90;;;;;;5011213;28;20533;-69
2022/08/10 05:36:20;;;;;;;2.93;2.73;;;16.70;99.90;;;;;;5011143;28;20486;-69
2022/08/10 05:38:48;;;;;;;2.60;2.40;;;16.70;99.90;;;;;;5011485;28;20474;-68
2022/08/10 05:41:16;;;;;;;2.47;2.27;;;16.80;99.90;;;;;;5011507;28;20468;-69
2022/08/10 05:43:43;;;;;;;2.83;2.63;;;16.90;99.90;;;;;;5010991;28;20485;-69
2022/08/10 05:46:10;;;;;;;8.03;2.90;;;17.00;99.90;;;;;;5009067;28;20505;-66
2022/08/10 05:48:40;;;;;;;4.23;2.73;;;17.10;99.90;;;;;;4991911;28;20462;-65
2022/08/10 05:51:07;;;;;;;2.20;2.00;;;17.30;99.50;;;;;;4991727;28;20474;-66
2022/08/10 05:53:35;;;;;;;2.30;2.10;;;17.50;99.20;;;;;;4991590;28;20545;-66
2022/08/10 05:56:03;;;;;;;2.60;2.40;;;17.60;99.30;;;;;;4991695;28;20474;-66
2022/08/10 05:58:30;;;;;;;2.37;2.17;;;17.70;98.90;;;;;;4992019;28;20463;-66
2022/08/10 06:00:59;;;;;;;3.50;2.43;;;17.90;98.30;;;;;;4991571;28;20469;-66
2022/08/10 06:03:31;;;;;;;2.83;2.33;;;18.00;98.20;;;;;;4991280;28;21022;-65
2022/08/10 06:06:02;;;;;;;3.23;2.20;;;18.20;98.00;;;;;;4991251;28;20470;-65
2022/08/10 06:08:32;;;;;;;4.23;2.43;;;18.30;97.50;;;;;;4991796;28;20473;-66
2022/08/10 06:11:01;;;;;;;2.37;2.17;;;18.40;97.20;;;;;;4991647;28;20993;-66
2022/08/10 06:16:16;;;;;;;2.10;1.90;;;18.60;96.40;;;;;;4991709;28;20462;-67
2022/08/10 06:18:43;;;;;;;2.50;2.03;;;18.70;96.20;;;;;;4991471;28;20469;-66
2022/08/10 06:21:13;;;;;;;2.17;1.97;;;18.90;96.40;;;;;;4991038;28;20489;-67
2022/08/10 06:23:40;;;;;;;1.90;1.70;;;18.90;96.00;;;;;;4991211;28;20496;-67
2022/08/10 06:26:07;;;;;;;2.57;2.20;;;19.10;95.80;;;;;;4991995;28;20502;-66
2022/08/10 06:28:39;;;;;;;1.90;1.80;;;19.20;95.70;;;;;;4991989;28;20474;-67
2022/08/10 06:31:07;;;;;;;1.77;1.67;;;19.30;95.30;;;;;;4991424;28;20887;-66
2022/08/10 06:33:38;;;;;;;1.97;1.87;;;19.30;95.40;;;;;;4991104;28;20830;-67
2022/08/10 06:36:07;;;;;;;1.97;1.77;;;19.40;95.50;;;;;;4990540;28;20466;-66
2022/08/10 06:38:37;;;;;;;1.90;1.77;;;19.50;95.60;;;;;;4991658;28;20525;-67
2022/08/10 06:41:10;;;;;;;2.63;2.03;;;19.60;95.40;;;;;;4991068;28;20528;-66
2022/08/10 06:43:40;;;;;;;2.60;2.00;;;19.70;95.40;;;;;;5000091;28;20461;-66
2022/08/10 06:46:10;;;;;;;2.50;2.30;;;19.80;95.20;;;;;;5010572;28;20466;-66
2022/08/10 06:48:41;;;;;;;2.50;1.83;;;19.90;95.00;;;;;;5010837;28;20474;-66
2022/08/10 06:51:16;;;;;;;2.40;2.20;;;20.00;94.80;;;;;;5010271;28;20462;-66
2022/08/10 06:53:49;;;;;;;2.23;2.00;;;20.10;94.70;;;;;;5009445;28;20532;-67
2022/08/10 06:56:19;;;;;;;2.03;1.83;;;20.20;94.70;;;;;;5010466;28;20488;-67
2022/08/10 06:58:50;;;;;;;2.47;1.97;;;20.30;94.30;;;;;;5010402;28;20472;-66
2022/08/10 07:01:20;;;;;;;3.53;1.90;;;20.30;94.30;;;;;;5008689;28;20461;-66
2022/08/10 07:03:53;;;;;;;2.07;1.87;;;20.40;94.30;;;;;;5009583;28;20458;-67
2022/08/10 07:06:21;;;;;;;3.40;1.90;;;20.40;94.10;;;;;;5010041;28;20540;-66
2022/08/10 07:08:51;;;;;;;2.70;1.83;;;20.60;94.20;;;;;;5014374;28;20468;-66
2022/08/10 07:11:20;;;;;;;2.40;2.03;;;20.70;94.30;;;;;;5013902;28;20465;-66
2022/08/10 07:13:48;;;;;;;2.10;1.90;;;20.70;94.20;;;;;;5013478;28;20481;-66
2022/08/10 07:16:16;;;;;;;2.33;2.13;;;20.80;93.90;;;;;;5013923;28;20486;-66
2022/08/10 07:18:47;;;;;;;2.07;1.90;;;20.80;93.80;;;;;;5014656;28;20564;-66
2022/08/10 07:21:14;;;;;;;1.83;1.73;;;20.80;94.00;;;;;;5014083;28;20470;-67
2022/08/10 07:23:45;;;;;;;2.50;1.60;;;21.00;93.90;;;;;;5013414;28;20526;-66
2022/08/10 07:26:15;;;;;;;2.33;1.97;;;21.10;93.90;;;;;;5013991;28;21074;-67
2022/08/10 07:28:42;;;;;;;2.77;2.10;;;21.20;94.50;;;;;;5014158;28;20466;-66
2022/08/10 07:31:09;;;;;;;1.77;1.67;;;21.20;93.60;;;;;;5014296;28;20463;-66
2022/08/10 07:33:38;;;;;;;2.40;2.20;;;21.30;93.60;;;;;;5013153;28;20469;-67
2022/08/10 07:36:06;;;;;;;2.57;2.03;;;21.40;93.40;;;;;;5014004;28;20466;-67
2022/08/10 07:38:34;;;;;;;3.20;2.17;;;21.50;93.60;;;;;;5013727;28;20911;-66
2022/08/10 07:41:02;;;;;;;2.83;1.73;;;21.50;93.60;;;;;;5013804;28;20469;-66
2022/08/10 07:43:37;;;;;;;2.30;2.10;;;21.60;93.40;;;;;;5012831;28;20493;-66
2022/08/10 07:46:05;;;;;;;2.20;2.00;;;21.60;93.80;;;;;;5013032;28;20461;-67
2022/08/10 07:48:37;;;;;;;1.83;1.73;;;21.70;93.30;;;;;;5013705;28;20466;-66
2022/08/10 07:51:05;;;;;;;2.17;1.97;;;21.80;93.20;;;;;;5012651;28;20468;-66
2022/08/10 07:53:36;;;;;;;2.20;1.87;;;21.90;92.80;;;;;;5012799;28;20466;-67
2022/08/10 07:56:04;;;;;;;2.33;2.07;;;22.00;92.70;;;;;;5013355;28;20971;-67
2022/08/10 07:58:38;;;;;;;1.70;1.60;;;22.10;93.00;;;;;;5013195;28;20466;-67
2022/08/10 08:01:05;;;;;;;2.23;2.03;;;22.20;93.20;;;;;;5013196;28;20975;-67
2022/08/10 08:03:33;;;;;;;2.10;1.70;;;22.30;91.90;;;;;;5012463;28;20465;-66
2022/08/10 08:06:02;;;;;;;2.07;1.93;;;22.30;91.60;;;;;;5013122;28;20464;-67
2022/08/10 08:08:30;;;;;;;2.37;1.60;;;22.40;92.20;;;;;;5012802;28;20463;-67
2022/08/10 08:10:58;;;;;;;1.60;1.50;;;22.50;92.70;;;;;;5013363;28;20458;-67
2022/08/10 08:13:26;;;;;;;3.83;1.93;;;22.60;91.90;;;;;;5012572;28;20598;-67
2022/08/10 08:15:56;;;;;;;2.83;1.83;;;22.60;91.90;;;;;;5012872;28;20497;-67
2022/08/10 08:18:24;;;;;;;1.30;1.20;;;22.70;91.50;;;;;;5011614;28;20543;-68
2022/08/10 08:20:51;;;;;;;2.40;1.60;;;22.70;91.80;;;;;;5012695;28;20503;-69
2022/08/10 08:23:18;;;;;;;2.23;2.00;;;22.90;91.90;;;;;;5012448;28;20878;-68
2022/08/10 08:25:47;;;;;;;1.70;1.57;;;23.00;91.90;;;;;;5011927;28;20464;-68
2022/08/10 08:28:15;;;;;;;1.80;1.67;;;23.10;91.20;;;;;;5012456;28;20490;-68
2022/08/10 08:30:42;;;;;;;1.70;1.60;;;23.20;91.00;;;;;;5011163;28;20491;-68
2022/08/10 08:33:12;;;;;;;1.60;1.50;;;23.20;90.80;;;;;;5012394;28;20475;-69
2022/08/10 08:35:38;;;;;;;1.87;1.73;;;23.20;90.90;;;;;;5012381;28;20492;-68
2022/08/10 08:38:06;;;;;;;1.90;1.70;;;23.30;91.80;;;;;;5012386;28;20890;-68
2022/08/10 08:40:35;;;;;;;1.83;1.40;;;23.50;90.80;;;;;;5012361;28;20495;-68
2022/08/10 08:43:30;;;;;;;2.33;1.90;;;23.50;90.10;;;;;;5012129;28;20969;-68
2022/08/10 08:46:27;;;;;;;1.93;1.70;;;23.60;90.10;;;;;;5012843;28;20642;-68
2022/08/10 08:49:24;;;;;;;2.10;1.90;;;23.70;90.40;;;;;;5012291;28;20516;-68
2022/08/10 08:52:05;;;;;;;2.20;1.97;;;23.70;90.50;;;;;;5007556;28;20532;-68
2022/08/10 08:54:45;;;;;;;2.53;1.73;;;23.80;90.60;;;;;;5011462;28;20488;-68
2022/08/10 08:57:25;;;;;;;2.70;1.73;;;23.90;90.50;;;;;;5012870;28;20489;-68
2022/08/10 09:00:06;;;;;;;1.63;1.53;;;24.00;87.70;;;;;;5012416;28;20508;-68
2022/08/10 09:03:01;;;;;;;2.23;1.90;;;24.10;87.40;;;;;;5012110;28;20827;-68
2022/08/10 09:05:40;;;;;;;1.60;1.43;;;24.20;88.20;;;;;;5011078;28;20472;-68
2022/08/10 09:08:33;;;;;;;1.73;1.60;;;24.30;89.30;;;;;;5012054;28;20483;-68
2022/08/10 09:11:07;;;;;;;1.63;1.53;;;24.40;86.40;;;;;;5035653;23;20501;-94
2022/08/10 09:13:41;;;;;;;1.70;1.60;;;24.50;86.50;;;;;;5028996;28;20462;-93
2022/08/10 09:16:24;;;;;;;1.87;1.50;;;24.60;86.80;;;;;;5038279;28;20475;-93
2022/08/10 09:19:01;;;;;;;1.60;1.50;;;24.60;86.00;;;;;;5038518;28;20524;-94
2022/08/10 09:21:38;;;;;;;6.30;1.73;;;24.70;85.70;;;;;;5037718;28;20457;-93
2022/08/10 09:24:13;;;;;;;2.60;1.60;;;24.80;86.50;;;;;;5023406;28;20469;-90
2022/08/10 09:26:48;;;;;;;2.07;1.50;;;24.90;84.20;;;;;;5019847;28;20469;-91
2022/08/10 09:31:53;;;;;;;1.97;1.70;;;25.00;87.20;;;;;;5009750;28;20980;-69
2022/08/10 09:34:30;;;;;;;2.27;1.77;;;25.10;84.30;;;;;;5010036;28;20952;-70
2022/08/10 09:37:03;;;;;;;2.00;1.80;;;25.20;82.20;;;;;;5011487;28;20561;-70
2022/08/10 09:39:37;;;;;;;1.80;1.50;;;25.30;86.70;;;;;;4992204;28;20463;-68
2022/08/10 09:42:10;;;;;;;2.10;1.73;;;25.50;86.80;;;;;;4990029;28;20477;-68
2022/08/10 09:44:52;;;;;;;1.70;1.60;;;25.70;87.20;;;;;;4990917;28;20469;-69
2022/08/10 09:47:33;;;;;;;1.50;1.40;;;25.90;86.60;;;;;;4991100;28;20542;-69
2022/08/10 09:50:17;;;;;;;2.10;1.90;;;26.00;81.80;;;;;;4991062;28;20462;-69
2022/08/10 09:53:04;;;;;;;2.23;1.80;;;26.00;85.50;;;;;;4991248;28;20470;-70
2022/08/10 09:55:40;;;;;;;2.03;1.83;;;26.10;83.50;;;;;;4990132;28;20486;-69
2022/08/10 09:58:28;;;;;;;1.97;1.77;;;26.20;82.80;;;;;;4990929;28;21044;-70
2022/08/10 10:01:03;;;;;;;3.00;2.03;;;26.20;81.70;;;;;;4991247;28;20477;-69
2022/08/10 10:03:35;;;;;;;2.30;2.00;;;26.30;81.00;;;;;;4990200;28;20462;-69
2022/08/10 10:06:09;;;;;;;3.27;1.80;;;26.40;82.80;;;;;;4991282;28;20459;-69
2022/08/10 10:08:46;;;;;;;2.13;1.80;;;26.50;81.20;;;;;;4990622;28;20558;-70
2022/08/10 10:11:19;;;;;;;2.17;1.90;;;26.60;83.80;;;;;;4991315;28;20883;-70
2022/08/10 10:13:57;;;;;;;1.80;1.70;;;26.70;82.10;;;;;;4990485;28;20544;-69
2022/08/10 10:16:41;;;;;;;2.30;1.83;;;26.80;83.50;;;;;;4988504;28;20501;-70
2022/08/10 10:19:35;;;;;;;2.40;1.47;;;26.90;84.00;;;;;;4991026;28;20847;-69
2022/08/10 10:22:24;;;;;;;4.07;1.77;;;27.10;81.20;;;;;;4985781;28;21012;-69
2022/08/10 10:24:57;;;;;;;1.70;1.60;;;27.30;81.20;;;;;;4990812;28;20470;-70
2022/08/10 10:27:37;;;;;;;2.60;1.60;;;27.40;81.10;;;;;;4990207;28;20486;-69
2022/08/10 10:30:07;;;;;;;1.80;1.70;;;27.40;78.70;;;;;;4990459;28;21021;-70
2022/08/10 10:32:47;;;;;;;1.73;1.63;;;27.40;76.90;;;;;;4991032;28;20585;-69
2022/08/10 10:35:23;;;;;;;2.13;1.93;;;27.40;80.00;;;;;;4990409;28;20505;-70
2022/08/10 10:37:53;;;;;;;2.17;1.90;;;27.30;80.00;;;;;;4991060;28;20533;-70
2022/08/10 10:40:25;;;;;;;1.57;1.47;;;27.30;78.90;;;;;;4989836;28;20458;-70
2022/08/10 10:43:01;;;;;;;1.67;1.57;;;27.30;78.70;;;;;;4993246;28;20473;-69
2022/08/10 10:45:36;;;;;;;1.90;1.70;;;27.40;78.20;;;;;;4991412;28;20458;-69
2022/08/10 10:48:14;;;;;;;1.70;1.50;;;27.50;77.90;;;;;;4994584;28;21011;-69
2022/08/10 10:50:52;;;;;;;1.47;1.30;;;27.60;79.20;;;;;;4994356;28;20541;-69
2022/08/10 10:53:27;;;;;;;2.53;1.60;;;27.80;80.40;;;;;;4993716;28;20459;-70
2022/08/10 10:56:02;;;;;;;1.97;1.80;;;27.90;80.70;;;;;;4994507;28;20486;-70
2022/08/10 10:58:36;;;;;;;2.43;1.70;;;28.10;79.10;;;;;;4993661;28;20465;-70
2022/08/10 11:01:10;;;;;;;1.60;1.50;;;28.10;77.80;;;;;;4994874;28;20966;-70
2022/08/10 11:03:52;;;;;;;1.83;1.63;;;28.10;77.10;;;;;;4993801;28;20462;-69
2022/08/10 11:06:27;;;;;;;2.07;1.83;;;28.00;78.80;;;;;;4994412;28;20486;-69
2022/08/10 11:09:00;;;;;;;1.70;1.30;;;27.80;76.90;;;;;;4994984;28;20517;-71
2022/08/10 11:11:34;;;;;;;1.67;1.30;;;27.60;79.20;;;;;;4994497;28;20497;-71
2022/08/10 11:14:11;;;;;;;1.63;1.53;;;27.50;79.50;;;;;;4994531;28;20470;-71
2022/08/10 11:16:43;;;;;;;1.97;1.60;;;27.60;81.40;;;;;;4994251;28;20500;-70
2022/08/10 11:19:18;;;;;;;2.13;1.50;;;27.90;81.80;;;;;;4994669;28;20508;-71
2022/08/10 11:22:09;;;;;;;2.83;1.60;;;28.00;78.10;;;;;;4994515;28;20896;-70
2022/08/10 11:24:43;;;;;;;2.03;1.60;;;28.10;76.40;;;;;;4993878;28;20994;-70
2022/08/10 11:27:18;;;;;;;1.70;1.60;;;28.20;77.30;;;;;;4994464;28;20486;-69
2022/08/10 11:30:00;;;;;;;1.90;1.80;;;28.30;77.70;;;;;;5002111;28;20476;-70
2022/08/10 11:32:35;;;;;;;1.77;1.57;;;28.40;76.90;;;;;;4992155;28;20463;-71
2022/08/10 11:35:12;;;;;;;1.60;1.50;;;28.70;79.20;;;;;;4993016;28;20914;-71
2022/08/10 11:37:44;;;;;;;2.70;1.83;;;28.80;76.10;;;;;;4992728;28;20994;-69
2022/08/10 11:40:17;;;;;;;1.70;1.60;;;28.80;76.10;;;;;;4992083;28;20466;-71
2022/08/10 11:42:52;;;;;;;1.30;1.20;;;28.80;76.80;;;;;;4993115;28;20474;-71
2022/08/10 11:45:25;;;;;;;1.60;1.50;;;28.80;77.30;;;;;;4991608;28;20469;-70
2022/08/10 11:47:56;;;;;;;1.57;1.47;;;28.90;75.80;;;;;;4993162;28;20483;-69
2022/08/10 11:50:28;;;;;;;1.77;1.67;;;28.90;77.70;;;;;;4993203;28;20469;-69
2022/08/10 11:53:04;;;;;;;1.77;1.60;;;29.00;73.70;;;;;;4992268;28;20963;-71
2022/08/10 11:55:32;;;;;;;1.87;1.50;;;29.00;76.30;;;;;;4992066;28;21077;-71
2022/08/10 11:59:55;;;;;;;1.40;1.30;;;29.10;74.40;;;;;;4992453;28;20486;-70
2022/08/10 12:00:55;;;;;;;3.30;1.93;;;29.10;76.20;;;;;;4992776;28;20558;-71
2022/08/10 12:03:22;;;;;;;4.23;1.80;;;29.20;76.10;;;;;;4992009;28;20509;-69
2022/08/10 12:05:53;;;;;;;1.57;1.47;;;29.30;76.10;;;;;;4991837;28;20823;-71
2022/08/10 12:08:22;;;;;;;1.73;1.60;;;29.40;72.60;;;;;;4992545;28;20466;-71
2022/08/10 12:10:50;;;;;;;1.80;1.33;;;29.40;75.70;;;;;;4992100;28;20462;-69
2022/08/10 12:13:25;;;;;;;1.80;1.50;;;29.40;75.20;;;;;;4991497;28;20473;-69
2022/08/10 12:15:57;;;;;;;1.80;1.70;;;29.30;74.60;;;;;;4992611;28;20493;-71
2022/08/10 12:18:29;;;;;;;1.60;1.50;;;29.30;73.60;;;;;;4991687;28;20820;-70
2022/08/10 12:21:01;;;;;;;1.47;1.37;;;29.20;74.60;;;;;;4992357;28;21028;-70
2022/08/10 12:23:35;;;;;;;2.07;1.77;;;29.30;74.50;;;;;;4990641;28;20497;-71
2022/08/10 12:26:07;;;;;;;1.73;1.50;;;29.30;72.80;;;;;;4992369;28;20463;-70
2022/08/10 12:28:40;;;;;;;2.83;2.20;;;29.40;72.70;;;;;;4991749;28;20477;-70
2022/08/10 12:31:10;;;;;;;2.50;2.20;;;29.40;72.10;;;;;;4991922;28;20529;-71
2022/08/10 12:33:43;;;;;;;1.40;1.30;;;29.40;73.30;;;;;;4990809;28;20466;-70
2022/08/10 12:36:17;;;;;;;1.50;1.40;;;29.40;73.80;;;;;;4991810;28;20581;-68
2022/08/10 12:38:51;;;;;;;1.50;1.40;;;29.50;75.40;;;;;;4989433;28;20466;-70
2022/08/10 12:41:23;;;;;;;1.73;1.63;;;29.60;73.60;;;;;;4991956;28;20513;-70
2022/08/10 12:43:58;;;;;;;1.93;1.73;;;29.60;70.10;;;;;;4990755;28;20463;-70
2022/08/10 12:46:31;;;;;;;2.03;1.67;;;29.60;73.40;;;;;;4990839;28;20669;-69
2022/08/10 12:49:06;;;;;;;1.73;1.63;;;29.60;73.90;;;;;;4991815;28;20469;-71
2022/08/10 12:51:37;;;;;;;3.47;1.73;;;29.60;73.60;;;;;;4991367;28;20840;-71
2022/08/10 12:54:09;;;;;;;1.83;1.73;;;29.80;74.80;;;;;;4992008;28;20455;-70
2022/08/10 12:56:38;;;;;;;2.40;1.80;;;30.00;74.00;;;;;;4991151;28;20556;-70
2022/08/10 12:59:09;;;;;;;1.77;1.50;;;30.10;71.90;;;;;;4990866;28;20467;-71
2022/08/10 13:01:37;;;;;;;2.33;1.70;;;30.10;73.80;;;;;;4990936;28;21363;-71
2022/08/10 13:04:08;;;;;;;2.47;1.70;;;30.10;74.30;;;;;;4990844;28;20463;-70
2022/08/10 13:06:41;;;;;;;1.70;1.60;;;30.10;73.00;;;;;;4990479;28;20587;-70
2022/08/10 13:09:08;;;;;;;1.70;1.60;;;30.20;73.60;;;;;;4991371;28;20474;-71
2022/08/10 13:11:38;;;;;;;1.40;1.30;;;30.20;73.50;;;;;;4990638;28;20842;-70
2022/08/10 13:14:12;;;;;;;1.67;1.57;;;30.30;73.70;;;;;;4990315;28;20960;-71
2022/08/10 13:16:41;;;;;;;2.03;1.80;;;30.40;74.70;;;;;;4990915;28;20499;-71
2022/08/10 13:19:10;;;;;;;2.20;2.00;;;30.50;69.10;;;;;;4991594;28;20909;-71
2022/08/10 13:21:38;;;;;;;1.57;1.47;;;30.50;71.60;;;;;;4991038;28;20470;-71
2022/08/10 13:24:09;;;;;;;1.80;1.70;;;30.40;68.70;;;;;;4989632;28;21339;-71
2022/08/10 13:26:40;;;;;;;1.73;1.63;;;30.30;72.00;;;;;;4981302;28;20483;-70
2022/08/10 13:29:14;;;;;;;1.60;1.50;;;30.10;68.50;;;;;;4989715;28;20459;-70
2022/08/10 13:31:44;;;;;;;1.90;1.70;;;30.00;72.40;;;;;;4988898;28;20470;-70
2022/08/10 13:34:19;;;;;;;1.73;1.63;;;30.00;70.60;;;;;;4988599;28;20474;-69
2022/08/10 13:36:49;;;;;;;2.27;1.63;;;30.10;71.70;;;;;;4987932;28;20946;-70
2022/08/10 13:39:20;;;;;;;1.53;1.43;;;30.20;71.10;;;;;;4989298;28;20471;-68
2022/08/10 13:41:49;;;;;;;1.80;1.70;;;30.10;69.70;;;;;;4988888;28;20471;-70
2022/08/10 13:44:27;;;;;;;1.57;1.47;;;30.20;73.60;;;;;;4988156;28;20963;-69
2022/08/10 13:46:55;;;;;;;1.53;1.43;;;30.20;70.80;;;;;;4989515;28;20486;-71
2022/08/10 13:49:22;;;;;;;1.70;1.60;;;30.20;68.50;;;;;;4988205;28;21119;-69
2022/08/10 13:51:50;;;;;;;1.90;1.73;;;30.10;69.80;;;;;;4988385;28;20462;-71
2022/08/10 13:54:19;;;;;;;1.40;1.30;;;30.10;71.70;;;;;;4989125;28;20497;-70